sensor_id;sensor_type;location;lat;lon;timestamp;P1;durP1;ratioP1;P2;durP2;ratioP2
51214;SDS011;63849;47.546;19.254;2023-12-04T00:01:20;33.35;;;18.40;;
51214;SDS011;63849;47.546;19.254;2023-12-04T00:03:47;42.53;;;18.50;;
51214;SDS011;63849;47.546;19.254;2023-12-04T00:06:13;87.90;;;36.92;;
51214;SDS011;63849;47.546;19.254;2023-12-04T00:08:39;105.50;;;46.90;;
51214;SDS011;63849;47.546;19.254;2023-12-04T00:11:05;110.72;;;52.38;;
51214;SDS011;63849;47.546;19.254;2023-12-04T00:13:31;79.75;;;31.75;;
51214;SDS011;63849;47.546;19.254;2023-12-04T00:15:57;66.50;;;26.55;;
51214;SDS011;63849;47.546;19.254;2023-12-04T00:18:23;56.60;;;23.75;;
51214;SDS011;63849;47.546;19.254;2023-12-04T00:20:49;31.77;;;17.85;;
51214;SDS011;63849;47.546;19.254;2023-12-04T00:23:15;27.60;;;16.02;;
51214;SDS011;63849;47.546;19.254;2023-12-04T00:25:40;25.67;;;15.23;;
51214;SDS011;63849;47.546;19.254;2023-12-04T00:28:06;27.55;;;15.82;;
51214;SDS011;63849;47.546;19.254;2023-12-04T00:30:32;37.15;;;19.27;;
51214;SDS011;63849;47.546;19.254;2023-12-04T00:32:58;36.72;;;20.27;;
51214;SDS011;63849;47.546;19.254;2023-12-04T00:35:23;31.23;;;17.42;;
51214;SDS011;63849;47.546;19.254;2023-12-04T00:37:49;26.52;;;15.15;;
51214;SDS011;63849;47.546;19.254;2023-12-04T00:40:15;27.85;;;16.42;;
51214;SDS011;63849;47.546;19.254;2023-12-04T00:42:41;33.22;;;20.13;;
51214;SDS011;63849;47.546;19.254;2023-12-04T00:45:07;49.05;;;27.73;;
51214;SDS011;63849;47.546;19.254;2023-12-04T00:47:33;48.88;;;28.65;;
51214;SDS011;63849;47.546;19.254;2023-12-04T00:49:59;53.55;;;31.13;;
51214;SDS011;63849;47.546;19.254;2023-12-04T00:52:25;44.30;;;25.25;;
51214;SDS011;63849;47.546;19.254;2023-12-04T00:54:50;43.20;;;25.35;;
51214;SDS011;63849;47.546;19.254;2023-12-04T00:57:16;32.47;;;18.80;;
51214;SDS011;63849;47.546;19.254;2023-12-04T00:59:42;32.97;;;20.38;;
51214;SDS011;63849;47.546;19.254;2023-12-04T01:02:08;31.75;;;19.40;;
51214;SDS011;63849;47.546;19.254;2023-12-04T01:04:33;30.90;;;19.00;;
51214;SDS011;63849;47.546;19.254;2023-12-04T01:06:59;36.38;;;20.70;;
51214;SDS011;63849;47.546;19.254;2023-12-04T01:09:25;37.22;;;22.73;;
51214;SDS011;63849;47.546;19.254;2023-12-04T01:11:54;35.33;;;20.70;;
51214;SDS011;63849;47.546;19.254;2023-12-04T01:14:20;31.05;;;20.20;;
51214;SDS011;63849;47.546;19.254;2023-12-04T01:16:46;30.25;;;17.33;;
51214;SDS011;63849;47.546;19.254;2023-12-04T01:19:12;27.58;;;15.80;;
51214;SDS011;63849;47.546;19.254;2023-12-04T01:21:38;24.40;;;14.02;;
51214;SDS011;63849;47.546;19.254;2023-12-04T01:24:04;24.13;;;13.55;;
51214;SDS011;63849;47.546;19.254;2023-12-04T01:26:30;21.92;;;13.68;;
51214;SDS011;63849;47.546;19.254;2023-12-04T01:28:56;18.67;;;12.10;;
51214;SDS011;63849;47.546;19.254;2023-12-04T01:31:22;19.40;;;12.43;;
51214;SDS011;63849;47.546;19.254;2023-12-04T01:33:48;21.52;;;13.10;;
51214;SDS011;63849;47.546;19.254;2023-12-04T01:36:13;46.63;;;25.60;;
51214;SDS011;63849;47.546;19.254;2023-12-04T01:38:39;23.00;;;14.15;;
51214;SDS011;63849;47.546;19.254;2023-12-04T01:41:05;22.35;;;12.63;;
51214;SDS011;63849;47.546;19.254;2023-12-04T01:43:31;23.73;;;14.55;;
51214;SDS011;63849;47.546;19.254;2023-12-04T01:45:57;55.42;;;31.83;;
51214;SDS011;63849;47.546;19.254;2023-12-04T01:48:25;101.78;;;50.65;;
51214;SDS011;63849;47.546;19.254;2023-12-04T01:50:53;91.50;;;48.15;;
51214;SDS011;63849;47.546;19.254;2023-12-04T01:53:20;61.13;;;31.42;;
51214;SDS011;63849;47.546;19.254;2023-12-04T01:55:47;28.13;;;16.30;;
51214;SDS011;63849;47.546;19.254;2023-12-04T01:58:14;22.58;;;14.02;;
51214;SDS011;63849;47.546;19.254;2023-12-04T02:00:40;22.40;;;13.52;;
51214;SDS011;63849;47.546;19.254;2023-12-04T02:03:05;23.33;;;14.32;;
51214;SDS011;63849;47.546;19.254;2023-12-04T02:05:33;26.60;;;13.98;;
51214;SDS011;63849;47.546;19.254;2023-12-04T02:08:00;24.25;;;14.55;;
51214;SDS011;63849;47.546;19.254;2023-12-04T02:10:26;24.15;;;14.63;;
51214;SDS011;63849;47.546;19.254;2023-12-04T02:12:52;24.98;;;13.82;;
51214;SDS011;63849;47.546;19.254;2023-12-04T02:15:18;26.58;;;15.50;;
51214;SDS011;63849;47.546;19.254;2023-12-04T02:17:43;23.65;;;14.60;;
51214;SDS011;63849;47.546;19.254;2023-12-04T02:20:12;22.65;;;14.50;;
51214;SDS011;63849;47.546;19.254;2023-12-04T02:22:38;23.95;;;14.23;;
51214;SDS011;63849;47.546;19.254;2023-12-04T02:25:04;26.42;;;14.98;;
51214;SDS011;63849;47.546;19.254;2023-12-04T02:27:37;23.83;;;14.68;;
51214;SDS011;63849;47.546;19.254;2023-12-04T02:30:09;24.38;;;14.88;;
51214;SDS011;63849;47.546;19.254;2023-12-04T02:32:38;23.40;;;14.68;;
51214;SDS011;63849;47.546;19.254;2023-12-04T02:35:09;24.98;;;15.73;;
51214;SDS011;63849;47.546;19.254;2023-12-04T02:37:36;22.23;;;13.52;;
51214;SDS011;63849;47.546;19.254;2023-12-04T02:40:03;23.90;;;14.30;;
51214;SDS011;63849;47.546;19.254;2023-12-04T02:42:31;27.83;;;15.45;;
51214;SDS011;63849;47.546;19.254;2023-12-04T02:44:57;30.05;;;17.08;;
51214;SDS011;63849;47.546;19.254;2023-12-04T02:47:23;31.48;;;17.35;;
51214;SDS011;63849;47.546;19.254;2023-12-04T02:49:49;28.98;;;16.30;;
51214;SDS011;63849;47.546;19.254;2023-12-04T02:52:15;28.50;;;16.77;;
51214;SDS011;63849;47.546;19.254;2023-12-04T02:54:41;31.10;;;17.80;;
51214;SDS011;63849;47.546;19.254;2023-12-04T02:57:06;26.40;;;15.07;;
51214;SDS011;63849;47.546;19.254;2023-12-04T02:59:32;27.60;;;15.88;;
51214;SDS011;63849;47.546;19.254;2023-12-04T03:01:58;31.90;;;17.90;;
51214;SDS011;63849;47.546;19.254;2023-12-04T03:04:24;36.13;;;19.48;;
51214;SDS011;63849;47.546;19.254;2023-12-04T03:06:49;35.33;;;19.73;;
51214;SDS011;63849;47.546;19.254;2023-12-04T03:09:15;37.05;;;18.80;;
51214;SDS011;63849;47.546;19.254;2023-12-04T03:11:41;33.40;;;17.75;;
51214;SDS011;63849;47.546;19.254;2023-12-04T03:14:07;31.98;;;18.00;;
51214;SDS011;63849;47.546;19.254;2023-12-04T03:16:33;33.25;;;17.65;;
51214;SDS011;63849;47.546;19.254;2023-12-04T03:18:59;35.28;;;18.02;;
51214;SDS011;63849;47.546;19.254;2023-12-04T03:21:24;34.10;;;19.42;;
51214;SDS011;63849;47.546;19.254;2023-12-04T03:23:50;35.50;;;18.13;;
51214;SDS011;63849;47.546;19.254;2023-12-04T03:26:16;31.88;;;17.77;;
51214;SDS011;63849;47.546;19.254;2023-12-04T03:28:42;28.77;;;17.20;;
51214;SDS011;63849;47.546;19.254;2023-12-04T03:31:08;31.30;;;17.33;;
51214;SDS011;63849;47.546;19.254;2023-12-04T03:33:34;34.40;;;19.40;;
51214;SDS011;63849;47.546;19.254;2023-12-04T03:35:59;32.85;;;17.83;;
51214;SDS011;63849;47.546;19.254;2023-12-04T03:38:25;33.33;;;17.45;;
51214;SDS011;63849;47.546;19.254;2023-12-04T03:40:51;32.42;;;18.17;;
51214;SDS011;63849;47.546;19.254;2023-12-04T03:43:17;35.00;;;18.88;;
51214;SDS011;63849;47.546;19.254;2023-12-04T03:45:43;33.83;;;19.02;;
51214;SDS011;63849;47.546;19.254;2023-12-04T03:48:09;30.65;;;16.98;;
51214;SDS011;63849;47.546;19.254;2023-12-04T03:50:34;33.42;;;17.92;;
51214;SDS011;63849;47.546;19.254;2023-12-04T03:53:00;31.80;;;17.48;;
51214;SDS011;63849;47.546;19.254;2023-12-04T03:55:26;32.90;;;18.45;;
51214;SDS011;63849;47.546;19.254;2023-12-04T03:57:52;31.58;;;17.48;;
51214;SDS011;63849;47.546;19.254;2023-12-04T04:00:19;31.60;;;17.63;;
51214;SDS011;63849;47.546;19.254;2023-12-04T04:02:45;30.13;;;17.70;;
51214;SDS011;63849;47.546;19.254;2023-12-04T04:05:11;33.38;;;18.17;;
51214;SDS011;63849;47.546;19.254;2023-12-04T04:07:37;32.53;;;17.92;;
51214;SDS011;63849;47.546;19.254;2023-12-04T04:10:02;37.90;;;18.58;;
51214;SDS011;63849;47.546;19.254;2023-12-04T04:12:29;33.30;;;18.38;;
51214;SDS011;63849;47.546;19.254;2023-12-04T04:14:56;38.10;;;20.63;;
51214;SDS011;63849;47.546;19.254;2023-12-04T04:17:22;51.53;;;24.48;;
51214;SDS011;63849;47.546;19.254;2023-12-04T04:19:51;71.70;;;32.47;;
51214;SDS011;63849;47.546;19.254;2023-12-04T04:22:22;167.75;;;63.17;;
51214;SDS011;63849;47.546;19.254;2023-12-04T04:24:48;190.77;;;69.05;;
51214;SDS011;63849;47.546;19.254;2023-12-04T04:27:14;118.07;;;46.38;;
51214;SDS011;63849;47.546;19.254;2023-12-04T04:29:40;95.03;;;40.15;;
51214;SDS011;63849;47.546;19.254;2023-12-04T04:32:06;83.88;;;36.72;;
51214;SDS011;63849;47.546;19.254;2023-12-04T04:34:32;57.90;;;27.27;;
51214;SDS011;63849;47.546;19.254;2023-12-04T04:36:58;47.72;;;25.85;;
51214;SDS011;63849;47.546;19.254;2023-12-04T04:39:24;45.47;;;24.55;;
51214;SDS011;63849;47.546;19.254;2023-12-04T04:41:50;45.65;;;26.13;;
51214;SDS011;63849;47.546;19.254;2023-12-04T04:44:15;44.10;;;25.92;;
51214;SDS011;63849;47.546;19.254;2023-12-04T04:46:41;44.50;;;25.25;;
51214;SDS011;63849;47.546;19.254;2023-12-04T04:49:07;52.38;;;28.02;;
51214;SDS011;63849;47.546;19.254;2023-12-04T04:51:33;47.42;;;27.42;;
51214;SDS011;63849;47.546;19.254;2023-12-04T04:54:02;46.85;;;28.52;;
51214;SDS011;63849;47.546;19.254;2023-12-04T04:56:29;49.72;;;27.58;;
51214;SDS011;63849;47.546;19.254;2023-12-04T04:58:55;53.30;;;30.10;;
51214;SDS011;63849;47.546;19.254;2023-12-04T05:01:21;56.45;;;32.60;;
51214;SDS011;63849;47.546;19.254;2023-12-04T05:03:47;58.88;;;32.50;;
51214;SDS011;63849;47.546;19.254;2023-12-04T05:06:12;72.18;;;39.13;;
51214;SDS011;63849;47.546;19.254;2023-12-04T05:08:39;83.47;;;42.60;;
51214;SDS011;63849;47.546;19.254;2023-12-04T05:11:04;78.47;;;41.03;;
51214;SDS011;63849;47.546;19.254;2023-12-04T05:13:30;79.72;;;43.58;;
51214;SDS011;63849;47.546;19.254;2023-12-04T05:15:56;73.95;;;40.28;;
51214;SDS011;63849;47.546;19.254;2023-12-04T05:18:22;67.05;;;35.53;;
51214;SDS011;63849;47.546;19.254;2023-12-04T05:20:47;64.47;;;35.95;;
51214;SDS011;63849;47.546;19.254;2023-12-04T05:23:13;61.72;;;33.08;;
51214;SDS011;63849;47.546;19.254;2023-12-04T05:25:39;63.95;;;34.15;;
51214;SDS011;63849;47.546;19.254;2023-12-04T05:28:05;57.95;;;30.42;;
51214;SDS011;63849;47.546;19.254;2023-12-04T05:30:30;115.47;;;61.53;;
51214;SDS011;63849;47.546;19.254;2023-12-04T05:32:56;117.25;;;61.47;;
51214;SDS011;63849;47.546;19.254;2023-12-04T05:35:22;105.93;;;56.63;;
51214;SDS011;63849;47.546;19.254;2023-12-04T05:37:48;75.93;;;39.78;;
51214;SDS011;63849;47.546;19.254;2023-12-04T05:40:14;108.13;;;53.20;;
51214;SDS011;63849;47.546;19.254;2023-12-04T05:42:40;91.63;;;48.22;;
51214;SDS011;63849;47.546;19.254;2023-12-04T05:45:06;80.00;;;42.58;;
51214;SDS011;63849;47.546;19.254;2023-12-04T05:47:33;77.82;;;39.88;;
51214;SDS011;63849;47.546;19.254;2023-12-04T05:49:59;65.10;;;35.92;;
51214;SDS011;63849;47.546;19.254;2023-12-04T05:52:25;55.63;;;31.77;;
51214;SDS011;63849;47.546;19.254;2023-12-04T05:54:51;59.50;;;32.05;;
51214;SDS011;63849;47.546;19.254;2023-12-04T05:57:17;59.60;;;32.78;;
51214;SDS011;63849;47.546;19.254;2023-12-04T05:59:43;62.53;;;33.75;;
51214;SDS011;63849;47.546;19.254;2023-12-04T06:02:09;55.20;;;31.10;;
51214;SDS011;63849;47.546;19.254;2023-12-04T06:04:35;48.58;;;28.80;;
51214;SDS011;63849;47.546;19.254;2023-12-04T06:07:00;52.20;;;29.38;;
51214;SDS011;63849;47.546;19.254;2023-12-04T06:09:26;54.03;;;27.77;;
51214;SDS011;63849;47.546;19.254;2023-12-04T06:11:52;79.10;;;37.20;;
51214;SDS011;63849;47.546;19.254;2023-12-04T06:14:18;77.78;;;36.95;;
51214;SDS011;63849;47.546;19.254;2023-12-04T06:16:43;69.72;;;35.58;;
51214;SDS011;63849;47.546;19.254;2023-12-04T06:19:09;70.90;;;35.75;;
51214;SDS011;63849;47.546;19.254;2023-12-04T06:21:35;67.57;;;34.00;;
51214;SDS011;63849;47.546;19.254;2023-12-04T06:24:01;70.78;;;36.55;;
51214;SDS011;63849;47.546;19.254;2023-12-04T06:26:27;72.32;;;35.63;;
51214;SDS011;63849;47.546;19.254;2023-12-04T06:28:54;76.68;;;36.22;;
51214;SDS011;63849;47.546;19.254;2023-12-04T06:31:20;79.65;;;38.30;;
51214;SDS011;63849;47.546;19.254;2023-12-04T06:33:46;71.43;;;36.38;;
51214;SDS011;63849;47.546;19.254;2023-12-04T06:36:12;73.05;;;35.72;;
51214;SDS011;63849;47.546;19.254;2023-12-04T06:38:41;71.95;;;35.10;;
51214;SDS011;63849;47.546;19.254;2023-12-04T06:41:08;70.20;;;34.88;;
51214;SDS011;63849;47.546;19.254;2023-12-04T06:43:35;68.03;;;35.95;;
51214;SDS011;63849;47.546;19.254;2023-12-04T06:46:01;75.85;;;36.95;;
51214;SDS011;63849;47.546;19.254;2023-12-04T06:48:28;71.55;;;37.60;;
51214;SDS011;63849;47.546;19.254;2023-12-04T06:50:54;69.10;;;38.00;;
51214;SDS011;63849;47.546;19.254;2023-12-04T06:53:19;56.63;;;32.65;;
51214;SDS011;63849;47.546;19.254;2023-12-04T06:55:45;59.13;;;33.28;;
51214;SDS011;63849;47.546;19.254;2023-12-04T06:58:11;54.90;;;32.22;;
51214;SDS011;63849;47.546;19.254;2023-12-04T07:00:36;60.72;;;32.53;;
51214;SDS011;63849;47.546;19.254;2023-12-04T07:03:02;64.57;;;36.67;;
51214;SDS011;63849;47.546;19.254;2023-12-04T07:05:28;64.85;;;36.25;;
51214;SDS011;63849;47.546;19.254;2023-12-04T07:07:54;72.47;;;39.28;;
51214;SDS011;63849;47.546;19.254;2023-12-04T07:10:20;66.55;;;35.83;;
51214;SDS011;63849;47.546;19.254;2023-12-04T07:12:46;58.97;;;34.75;;
51214;SDS011;63849;47.546;19.254;2023-12-04T07:15:12;63.67;;;37.78;;
51214;SDS011;63849;47.546;19.254;2023-12-04T07:17:38;63.60;;;36.33;;
51214;SDS011;63849;47.546;19.254;2023-12-04T07:20:05;60.72;;;35.50;;
51214;SDS011;63849;47.546;19.254;2023-12-04T07:22:34;52.10;;;31.90;;
51214;SDS011;63849;47.546;19.254;2023-12-04T07:25:00;54.15;;;32.22;;
51214;SDS011;63849;47.546;19.254;2023-12-04T07:27:25;56.60;;;33.10;;
51214;SDS011;63849;47.546;19.254;2023-12-04T07:29:51;61.03;;;34.03;;
51214;SDS011;63849;47.546;19.254;2023-12-04T07:32:17;58.15;;;33.58;;
51214;SDS011;63849;47.546;19.254;2023-12-04T07:34:43;53.03;;;32.45;;
51214;SDS011;63849;47.546;19.254;2023-12-04T07:37:09;53.35;;;31.27;;
51214;SDS011;63849;47.546;19.254;2023-12-04T07:39:35;53.83;;;30.60;;
51214;SDS011;63849;47.546;19.254;2023-12-04T07:42:01;56.50;;;30.05;;
51214;SDS011;63849;47.546;19.254;2023-12-04T07:44:27;51.25;;;30.88;;
51214;SDS011;63849;47.546;19.254;2023-12-04T07:46:53;57.90;;;30.75;;
51214;SDS011;63849;47.546;19.254;2023-12-04T07:49:18;53.20;;;31.48;;
51214;SDS011;63849;47.546;19.254;2023-12-04T07:51:44;51.92;;;30.33;;
51214;SDS011;63849;47.546;19.254;2023-12-04T07:54:10;53.00;;;29.52;;
51214;SDS011;63849;47.546;19.254;2023-12-04T07:56:36;53.53;;;31.95;;
51214;SDS011;63849;47.546;19.254;2023-12-04T07:59:02;46.75;;;29.33;;
51214;SDS011;63849;47.546;19.254;2023-12-04T08:01:28;46.88;;;28.73;;
51214;SDS011;63849;47.546;19.254;2023-12-04T08:03:54;52.10;;;29.27;;
51214;SDS011;63849;47.546;19.254;2023-12-04T08:06:19;47.28;;;28.65;;
51214;SDS011;63849;47.546;19.254;2023-12-04T08:08:45;44.50;;;27.52;;
51214;SDS011;63849;47.546;19.254;2023-12-04T08:11:11;42.28;;;25.77;;
51214;SDS011;63849;47.546;19.254;2023-12-04T08:13:38;44.60;;;23.92;;
51214;SDS011;63849;47.546;19.254;2023-12-04T08:16:04;40.45;;;24.00;;
51214;SDS011;63849;47.546;19.254;2023-12-04T08:18:37;39.58;;;24.48;;
51214;SDS011;63849;47.546;19.254;2023-12-04T08:21:03;41.58;;;24.58;;
51214;SDS011;63849;47.546;19.254;2023-12-04T08:23:29;39.92;;;23.20;;
51214;SDS011;63849;47.546;19.254;2023-12-04T08:25:55;41.78;;;25.25;;
51214;SDS011;63849;47.546;19.254;2023-12-04T08:28:22;41.88;;;25.40;;
51214;SDS011;63849;47.546;19.254;2023-12-04T08:30:48;38.60;;;22.92;;
51214;SDS011;63849;47.546;19.254;2023-12-04T08:33:14;44.10;;;27.30;;
51214;SDS011;63849;47.546;19.254;2023-12-04T08:35:39;38.83;;;24.15;;
51214;SDS011;63849;47.546;19.254;2023-12-04T08:38:05;41.05;;;24.83;;
51214;SDS011;63849;47.546;19.254;2023-12-04T08:40:31;38.20;;;24.08;;
51214;SDS011;63849;47.546;19.254;2023-12-04T08:42:57;33.85;;;20.73;;
51214;SDS011;63849;47.546;19.254;2023-12-04T08:45:23;44.67;;;24.67;;
51214;SDS011;63849;47.546;19.254;2023-12-04T08:47:49;33.85;;;21.25;;
51214;SDS011;63849;47.546;19.254;2023-12-04T08:50:15;32.45;;;19.42;;
51214;SDS011;63849;47.546;19.254;2023-12-04T08:52:41;29.15;;;18.90;;
51214;SDS011;63849;47.546;19.254;2023-12-04T08:55:07;33.03;;;21.13;;
51214;SDS011;63849;47.546;19.254;2023-12-04T08:57:33;34.00;;;18.58;;
51214;SDS011;63849;47.546;19.254;2023-12-04T08:59:59;28.00;;;17.85;;
51214;SDS011;63849;47.546;19.254;2023-12-04T09:02:25;30.67;;;19.85;;
51214;SDS011;63849;47.546;19.254;2023-12-04T09:04:51;30.55;;;19.50;;
51214;SDS011;63849;47.546;19.254;2023-12-04T09:07:16;34.28;;;22.05;;
51214;SDS011;63849;47.546;19.254;2023-12-04T09:09:42;33.08;;;20.98;;
51214;SDS011;63849;47.546;19.254;2023-12-04T09:12:09;31.00;;;18.92;;
51214;SDS011;63849;47.546;19.254;2023-12-04T09:14:35;29.65;;;19.15;;
51214;SDS011;63849;47.546;19.254;2023-12-04T09:17:01;32.97;;;19.65;;
51214;SDS011;63849;47.546;19.254;2023-12-04T09:19:28;35.85;;;19.30;;
51214;SDS011;63849;47.546;19.254;2023-12-04T09:21:54;31.55;;;20.10;;
51214;SDS011;63849;47.546;19.254;2023-12-04T09:24:22;32.80;;;21.33;;
51214;SDS011;63849;47.546;19.254;2023-12-04T09:26:48;34.80;;;21.05;;
51214;SDS011;63849;47.546;19.254;2023-12-04T09:29:14;35.78;;;22.10;;
51214;SDS011;63849;47.546;19.254;2023-12-04T09:31:41;32.60;;;20.90;;
51214;SDS011;63849;47.546;19.254;2023-12-04T09:34:07;31.75;;;20.45;;
51214;SDS011;63849;47.546;19.254;2023-12-04T09:36:33;33.10;;;20.13;;
51214;SDS011;63849;47.546;19.254;2023-12-04T09:38:59;31.33;;;20.67;;
51214;SDS011;63849;47.546;19.254;2023-12-04T09:41:25;33.30;;;20.80;;
51214;SDS011;63849;47.546;19.254;2023-12-04T09:43:51;31.33;;;19.75;;
51214;SDS011;63849;47.546;19.254;2023-12-04T09:46:18;28.45;;;18.83;;
51214;SDS011;63849;47.546;19.254;2023-12-04T09:48:44;26.08;;;17.13;;
51214;SDS011;63849;47.546;19.254;2023-12-04T09:51:10;33.83;;;18.88;;
51214;SDS011;63849;47.546;19.254;2023-12-04T09:53:36;33.33;;;20.33;;
51214;SDS011;63849;47.546;19.254;2023-12-04T09:56:05;31.20;;;18.90;;
51214;SDS011;63849;47.546;19.254;2023-12-04T09:58:32;27.00;;;18.55;;
51214;SDS011;63849;47.546;19.254;2023-12-04T10:01:02;29.42;;;19.63;;
51214;SDS011;63849;47.546;19.254;2023-12-04T10:03:29;33.72;;;20.45;;
51214;SDS011;63849;47.546;19.254;2023-12-04T10:05:56;30.35;;;19.05;;
51214;SDS011;63849;47.546;19.254;2023-12-04T10:08:22;29.05;;;18.77;;
51214;SDS011;63849;47.546;19.254;2023-12-04T10:10:48;29.75;;;18.85;;
51214;SDS011;63849;47.546;19.254;2023-12-04T10:13:14;27.48;;;18.48;;
51214;SDS011;63849;47.546;19.254;2023-12-04T10:15:50;28.88;;;17.98;;
51214;SDS011;63849;47.546;19.254;2023-12-04T10:18:29;28.10;;;18.55;;
51214;SDS011;63849;47.546;19.254;2023-12-04T10:20:56;27.20;;;17.50;;
51214;SDS011;63849;47.546;19.254;2023-12-04T10:23:37;31.55;;;18.05;;
51214;SDS011;63849;47.546;19.254;2023-12-04T10:26:06;27.88;;;18.75;;
51214;SDS011;63849;47.546;19.254;2023-12-04T10:28:33;24.83;;;18.23;;
51214;SDS011;63849;47.546;19.254;2023-12-04T10:30:59;26.70;;;17.95;;
51214;SDS011;63849;47.546;19.254;2023-12-04T10:33:25;27.55;;;18.30;;
51214;SDS011;63849;47.546;19.254;2023-12-04T10:35:53;25.05;;;16.80;;
51214;SDS011;63849;47.546;19.254;2023-12-04T10:38:22;29.63;;;17.48;;
51214;SDS011;63849;47.546;19.254;2023-12-04T10:40:48;27.05;;;18.00;;
51214;SDS011;63849;47.546;19.254;2023-12-04T10:43:18;32.75;;;18.80;;
51214;SDS011;63849;47.546;19.254;2023-12-04T10:45:46;29.83;;;19.00;;
51214;SDS011;63849;47.546;19.254;2023-12-04T10:48:13;28.00;;;18.67;;
51214;SDS011;63849;47.546;19.254;2023-12-04T10:50:41;28.38;;;17.52;;
51214;SDS011;63849;47.546;19.254;2023-12-04T10:53:10;23.40;;;16.23;;
51214;SDS011;63849;47.546;19.254;2023-12-04T10:55:38;26.25;;;15.85;;
51214;SDS011;63849;47.546;19.254;2023-12-04T10:58:23;22.48;;;14.43;;
51214;SDS011;63849;47.546;19.254;2023-12-04T11:00:52;16.70;;;11.50;;
51214;SDS011;63849;47.546;19.254;2023-12-04T11:04:02;18.60;;;10.98;;
51214;SDS011;63849;47.546;19.254;2023-12-04T11:06:10;17.50;;;12.25;;
51214;SDS011;63849;47.546;19.254;2023-12-04T11:08:41;16.75;;;11.38;;
51214;SDS011;63849;47.546;19.254;2023-12-04T11:11:18;15.77;;;11.48;;
51214;SDS011;63849;47.546;19.254;2023-12-04T11:13:53;17.23;;;11.65;;
51214;SDS011;63849;47.546;19.254;2023-12-04T11:16:34;14.38;;;10.68;;
51214;SDS011;63849;47.546;19.254;2023-12-04T11:22:00;16.03;;;10.77;;
51214;SDS011;63849;47.546;19.254;2023-12-04T11:24:27;15.65;;;10.80;;
51214;SDS011;63849;47.546;19.254;2023-12-04T11:26:53;15.23;;;11.10;;
51214;SDS011;63849;47.546;19.254;2023-12-04T11:29:19;16.67;;;10.77;;
51214;SDS011;63849;47.546;19.254;2023-12-04T11:31:48;16.13;;;10.38;;
51214;SDS011;63849;47.546;19.254;2023-12-04T11:34:13;15.52;;;10.23;;
51214;SDS011;63849;47.546;19.254;2023-12-04T11:36:39;14.32;;;10.43;;
51214;SDS011;63849;47.546;19.254;2023-12-04T11:39:09;15.27;;;10.65;;
51214;SDS011;63849;47.546;19.254;2023-12-04T11:41:36;19.00;;;12.75;;
51214;SDS011;63849;47.546;19.254;2023-12-04T11:44:02;17.25;;;12.23;;
51214;SDS011;63849;47.546;19.254;2023-12-04T11:46:29;18.33;;;11.95;;
51214;SDS011;63849;47.546;19.254;2023-12-04T11:49:26;17.38;;;12.38;;
51214;SDS011;63849;47.546;19.254;2023-12-04T11:51:53;19.02;;;12.82;;
51214;SDS011;63849;47.546;19.254;2023-12-04T11:54:21;20.52;;;12.55;;
51214;SDS011;63849;47.546;19.254;2023-12-04T11:56:59;15.85;;;11.27;;
51214;SDS011;63849;47.546;19.254;2023-12-04T11:59:44;14.75;;;10.45;;
51214;SDS011;63849;47.546;19.254;2023-12-04T12:02:10;17.30;;;11.80;;
51214;SDS011;63849;47.546;19.254;2023-12-04T12:04:36;17.40;;;12.00;;
51214;SDS011;63849;47.546;19.254;2023-12-04T12:07:04;17.58;;;11.55;;
51214;SDS011;63849;47.546;19.254;2023-12-04T12:09:30;18.40;;;13.40;;
51214;SDS011;63849;47.546;19.254;2023-12-04T12:12:01;16.42;;;12.13;;
51214;SDS011;63849;47.546;19.254;2023-12-04T12:14:28;15.32;;;11.70;;
51214;SDS011;63849;47.546;19.254;2023-12-04T12:16:54;18.88;;;11.35;;
51214;SDS011;63849;47.546;19.254;2023-12-04T12:19:20;14.52;;;9.85;;
51214;SDS011;63849;47.546;19.254;2023-12-04T12:21:49;15.05;;;11.32;;
51214;SDS011;63849;47.546;19.254;2023-12-04T12:24:16;20.65;;;12.93;;
51214;SDS011;63849;47.546;19.254;2023-12-04T12:26:43;19.80;;;12.20;;
51214;SDS011;63849;47.546;19.254;2023-12-04T12:29:10;17.63;;;12.50;;
51214;SDS011;63849;47.546;19.254;2023-12-04T12:31:36;25.83;;;16.20;;
51214;SDS011;63849;47.546;19.254;2023-12-04T12:34:02;20.73;;;14.00;;
51214;SDS011;63849;47.546;19.254;2023-12-04T12:36:28;19.77;;;13.80;;
51214;SDS011;63849;47.546;19.254;2023-12-04T12:38:54;20.02;;;13.32;;
51214;SDS011;63849;47.546;19.254;2023-12-04T12:41:21;20.48;;;12.80;;
51214;SDS011;63849;47.546;19.254;2023-12-04T12:43:47;18.33;;;13.10;;
51214;SDS011;63849;47.546;19.254;2023-12-04T12:46:17;18.95;;;12.20;;
51214;SDS011;63849;47.546;19.254;2023-12-04T12:48:43;15.93;;;11.40;;
51214;SDS011;63849;47.546;19.254;2023-12-04T12:51:10;14.38;;;10.40;;
51214;SDS011;63849;47.546;19.254;2023-12-04T12:53:37;16.30;;;10.63;;
51214;SDS011;63849;47.546;19.254;2023-12-04T12:56:03;18.45;;;11.13;;
51214;SDS011;63849;47.546;19.254;2023-12-04T12:58:30;18.33;;;11.60;;
51214;SDS011;63849;47.546;19.254;2023-12-04T13:00:56;16.23;;;10.80;;
51214;SDS011;63849;47.546;19.254;2023-12-04T13:03:22;15.98;;;11.07;;
51214;SDS011;63849;47.546;19.254;2023-12-04T13:05:48;15.00;;;10.50;;
51214;SDS011;63849;47.546;19.254;2023-12-04T13:08:14;24.38;;;14.77;;
51214;SDS011;63849;47.546;19.254;2023-12-04T13:10:42;16.38;;;11.18;;
51214;SDS011;63849;47.546;19.254;2023-12-04T13:13:12;15.82;;;11.38;;
51214;SDS011;63849;47.546;19.254;2023-12-04T13:15:41;16.35;;;11.75;;
51214;SDS011;63849;47.546;19.254;2023-12-04T13:18:07;14.93;;;10.63;;
51214;SDS011;63849;47.546;19.254;2023-12-04T13:20:34;16.95;;;11.20;;
51214;SDS011;63849;47.546;19.254;2023-12-04T13:23:00;14.07;;;10.80;;
51214;SDS011;63849;47.546;19.254;2023-12-04T13:25:26;15.77;;;10.45;;
51214;SDS011;63849;47.546;19.254;2023-12-04T13:27:52;15.85;;;11.05;;
51214;SDS011;63849;47.546;19.254;2023-12-04T13:30:19;17.55;;;11.77;;
51214;SDS011;63849;47.546;19.254;2023-12-04T13:32:45;19.80;;;13.55;;
51214;SDS011;63849;47.546;19.254;2023-12-04T13:35:11;18.67;;;12.95;;
51214;SDS011;63849;47.546;19.254;2023-12-04T13:37:37;18.38;;;12.48;;
51214;SDS011;63849;47.546;19.254;2023-12-04T13:40:04;19.02;;;13.20;;
51214;SDS011;63849;47.546;19.254;2023-12-04T13:42:37;19.85;;;13.05;;
51214;SDS011;63849;47.546;19.254;2023-12-04T13:45:22;24.20;;;14.82;;
51214;SDS011;63849;47.546;19.254;2023-12-04T13:47:48;20.65;;;14.25;;
51214;SDS011;63849;47.546;19.254;2023-12-04T13:50:15;19.48;;;13.77;;
51214;SDS011;63849;47.546;19.254;2023-12-04T13:52:43;26.42;;;15.98;;
51214;SDS011;63849;47.546;19.254;2023-12-04T13:55:09;23.50;;;15.45;;
51214;SDS011;63849;47.546;19.254;2023-12-04T13:58:01;24.17;;;15.50;;
51214;SDS011;63849;47.546;19.254;2023-12-04T14:00:28;21.23;;;14.40;;
51214;SDS011;63849;47.546;19.254;2023-12-04T14:02:53;21.35;;;13.93;;
51214;SDS011;63849;47.546;19.254;2023-12-04T14:05:29;20.20;;;14.90;;
51214;SDS011;63849;47.546;19.254;2023-12-04T14:07:55;23.50;;;16.63;;
51214;SDS011;63849;47.546;19.254;2023-12-04T14:10:21;24.40;;;17.90;;